sensor_id;sensor_type;location;lat;lon;timestamp;pressure;altitude;pressure_sealevel;temperature;humidity
55610;BME280;41486;52.502;13.486;2023-05-07T00:00:05;101652.59;;;8.73;100.00
55610;BME280;41486;52.502;13.486;2023-05-07T00:02:35;101646.50;;;8.73;100.00
55610;BME280;41486;52.502;13.486;2023-05-07T00:05:06;101644.63;;;8.75;100.00
55610;BME280;41486;52.502;13.486;2023-05-07T00:07:35;101642.13;;;8.89;100.00
55610;BME280;41486;52.502;13.486;2023-05-07T00:10:05;101645.28;;;8.62;100.00
55610;BME280;41486;52.502;13.486;2023-05-07T00:12:33;101648.78;;;8.79;100.00
55610;BME280;41486;52.502;13.486;2023-05-07T00:15:02;101648.69;;;8.64;100.00
55610;BME280;41486;52.502;13.486;2023-05-07T00:17:31;101644.25;;;8.65;100.00
55610;BME280;41486;52.502;13.486;2023-05-07T00:19:59;101638.78;;;8.70;100.00
55610;BME280;41486;52.502;13.486;2023-05-07T00:22:28;101642.63;;;8.80;100.00
55610;BME280;41486;52.502;13.486;2023-05-07T00:24:56;101642.50;;;8.99;100.00
55610;BME280;41486;52.502;13.486;2023-05-07T00:27:24;101642.09;;;8.73;100.00
55610;BME280;41486;52.502;13.486;2023-05-07T00:29:52;101648.13;;;8.75;100.00
55610;BME280;41486;52.502;13.486;2023-05-07T00:32:20;101637.75;;;8.72;100.00
55610;BME280;41486;52.502;13.486;2023-05-07T00:34:48;101633.38;;;8.73;100.00
55610;BME280;41486;52.502;13.486;2023-05-07T00:37:17;101636.53;;;8.62;100.00
55610;BME280;41486;52.502;13.486;2023-05-07T00:39:47;101638.19;;;8.64;100.00
55610;BME280;41486;52.502;13.486;2023-05-07T00:42:15;101640.75;;;8.48;100.00
55610;BME280;41486;52.502;13.486;2023-05-07T00:44:42;101642.03;;;8.40;100.00
55610;BME280;41486;52.502;13.486;2023-05-07T00:47:11;101647.88;;;8.45;100.00
55610;BME280;41486;52.502;13.486;2023-05-07T00:49:41;101648.13;;;8.58;100.00
55610;BME280;41486;52.502;13.486;2023-05-07T00:52:13;101635.94;;;8.57;100.00
55610;BME280;41486;52.502;13.486;2023-05-07T00:54:41;101645.50;;;8.58;100.00
55610;BME280;41486;52.502;13.486;2023-05-07T00:57:11;101638.81;;;8.52;100.00
55610;BME280;41486;52.502;13.486;2023-05-07T00:59:39;101639.56;;;8.36;100.00
55610;BME280;41486;52.502;13.486;2023-05-07T01:02:07;101640.84;;;8.47;100.00
55610;BME280;41486;52.502;13.486;2023-05-07T01:04:36;101642.97;;;8.56;100.00
55610;BME280;41486;52.502;13.486;2023-05-07T01:07:05;101645.25;;;8.45;100.00
55610;BME280;41486;52.502;13.486;2023-05-07T01:09:33;101642.72;;;8.43;100.00
55610;BME280;41486;52.502;13.486;2023-05-07T01:12:03;101648.38;;;8.53;100.00
55610;BME280;41486;52.502;13.486;2023-05-07T01:14:33;101653.38;;;8.40;100.00
55610;BME280;41486;52.502;13.486;2023-05-07T01:17:02;101645.41;;;8.42;100.00
55610;BME280;41486;52.502;13.486;2023-05-07T01:19:30;101642.56;;;8.64;100.00
55610;BME280;41486;52.502;13.486;2023-05-07T01:22:02;101645.69;;;8.88;100.00
55610;BME280;41486;52.502;13.486;2023-05-07T01:24:39;101641.16;;;8.74;100.00
55610;BME280;41486;52.502;13.486;2023-05-07T01:27:08;101638.97;;;8.82;100.00
55610;BME280;41486;52.502;13.486;2023-05-07T01:29:37;101642.38;;;8.84;100.00
55610;BME280;41486;52.502;13.486;2023-05-07T01:32:05;101646.00;;;8.82;100.00
55610;BME280;41486;52.502;13.486;2023-05-07T01:34:34;101647.19;;;8.76;100.00
55610;BME280;41486;52.502;13.486;2023-05-07T01:37:04;101652.19;;;8.81;100.00
55610;BME280;41486;52.502;13.486;2023-05-07T01:39:33;101652.19;;;8.81;100.00
55610;BME280;41486;52.502;13.486;2023-05-07T01:42:02;101651.75;;;8.73;100.00
55610;BME280;41486;52.502;13.486;2023-05-07T01:44:30;101647.44;;;8.72;100.00
55610;BME280;41486;52.502;13.486;2023-05-07T01:46:58;101644.25;;;8.98;100.00
55610;BME280;41486;52.502;13.486;2023-05-07T01:49:27;101647.78;;;8.81;100.00
55610;BME280;41486;52.502;13.486;2023-05-07T01:51:55;101651.59;;;8.58;100.00
55610;BME280;41486;52.502;13.486;2023-05-07T01:54:26;101653.56;;;8.88;100.00
55610;BME280;41486;52.502;13.486;2023-05-07T01:56:57;101649.59;;;8.63;100.00
55610;BME280;41486;52.502;13.486;2023-05-07T01:59:26;101657.09;;;8.53;100.00
55610;BME280;41486;52.502;13.486;2023-05-07T02:01:54;101651.47;;;8.77;100.00
55610;BME280;41486;52.502;13.486;2023-05-07T02:04:22;101651.94;;;8.86;100.00
55610;BME280;41486;52.502;13.486;2023-05-07T02:06:52;101654.09;;;8.77;100.00
55610;BME280;41486;52.502;13.486;2023-05-07T02:09:20;101655.91;;;8.77;100.00
55610;BME280;41486;52.502;13.486;2023-05-07T02:11:50;101661.03;;;8.62;100.00
55610;BME280;41486;52.502;13.486;2023-05-07T02:14:19;101654.72;;;8.82;100.00
55610;BME280;41486;52.502;13.486;2023-05-07T02:16:49;101661.22;;;8.75;100.00
55610;BME280;41486;52.502;13.486;2023-05-07T02:19:17;101666.75;;;8.87;100.00
55610;BME280;41486;52.502;13.486;2023-05-07T02:21:48;101658.81;;;8.88;100.00
55610;BME280;41486;52.502;13.486;2023-05-07T02:24:16;101664.47;;;8.80;100.00
55610;BME280;41486;52.502;13.486;2023-05-07T02:26:44;101668.91;;;8.62;100.00
55610;BME280;41486;52.502;13.486;2023-05-07T02:29:12;101673.66;;;8.72;100.00
55610;BME280;41486;52.502;13.486;2023-05-07T02:31:40;101656.13;;;8.72;100.00
55610;BME280;41486;52.502;13.486;2023-05-07T02:34:09;101666.16;;;8.46;100.00
55610;BME280;41486;52.502;13.486;2023-05-07T02:36:37;101664.94;;;8.53;100.00
55610;BME280;41486;52.502;13.486;2023-05-07T02:39:10;101677.56;;;8.45;100.00
55610;BME280;41486;52.502;13.486;2023-05-07T02:41:38;101668.34;;;8.56;100.00
55610;BME280;41486;52.502;13.486;2023-05-07T02:44:06;101668.72;;;8.65;100.00
55610;BME280;41486;52.502;13.486;2023-05-07T02:46:34;101665.81;;;8.54;100.00
55610;BME280;41486;52.502;13.486;2023-05-07T02:49:08;101661.34;;;8.56;100.00
55610;BME280;41486;52.502;13.486;2023-05-07T02:51:36;101668.03;;;8.62;100.00
55610;BME280;41486;52.502;13.486;2023-05-07T02:54:09;101680.41;;;8.60;100.00
55610;BME280;41486;52.502;13.486;2023-05-07T02:56:37;101671.34;;;8.65;100.00
55610;BME280;41486;52.502;13.486;2023-05-07T02:59:05;101678.06;;;8.53;100.00
55610;BME280;41486;52.502;13.486;2023-05-07T03:01:38;101677.22;;;8.53;100.00
55610;BME280;41486;52.502;13.486;2023-05-07T03:04:08;101681.88;;;8.48;100.00
55610;BME280;41486;52.502;13.486;2023-05-07T03:06:37;101683.94;;;8.59;100.00
55610;BME280;41486;52.502;13.486;2023-05-07T03:09:05;101685.78;;;8.57;100.00
55610;BME280;41486;52.502;13.486;2023-05-07T03:11:33;101691.50;;;8.65;100.00
55610;BME280;41486;52.502;13.486;2023-05-07T03:14:02;101698.06;;;8.56;100.00
55610;BME280;41486;52.502;13.486;2023-05-07T03:16:30;101692.66;;;8.59;100.00
55610;BME280;41486;52.502;13.486;2023-05-07T03:18:58;101691.03;;;8.57;100.00
55610;BME280;41486;52.502;13.486;2023-05-07T03:21:30;101684.97;;;8.56;100.00
55610;BME280;41486;52.502;13.486;2023-05-07T03:24:00;101692.75;;;8.58;100.00
55610;BME280;41486;52.502;13.486;2023-05-07T03:26:28;101704.06;;;8.58;100.00
55610;BME280;41486;52.502;13.486;2023-05-07T03:28:56;101700.44;;;8.43;100.00
55610;BME280;41486;52.502;13.486;2023-05-07T03:31:24;101700.06;;;8.51;100.00
55610;BME280;41486;52.502;13.486;2023-05-07T03:33:53;101707.94;;;8.51;100.00
55610;BME280;41486;52.502;13.486;2023-05-07T03:36:22;101704.31;;;8.36;100.00
55610;BME280;41486;52.502;13.486;2023-05-07T03:38:52;101703.19;;;8.40;100.00
55610;BME280;41486;52.502;13.486;2023-05-07T03:41:23;101706.41;;;8.47;100.00
55610;BME280;41486;52.502;13.486;2023-05-07T03:43:52;101707.06;;;8.33;100.00
55610;BME280;41486;52.502;13.486;2023-05-07T03:46:20;101709.06;;;8.45;100.00
55610;BME280;41486;52.502;13.486;2023-05-07T03:48:49;101706.00;;;8.37;100.00
55610;BME280;41486;52.502;13.486;2023-05-07T03:51:19;101703.91;;;8.44;100.00
55610;BME280;41486;52.502;13.486;2023-05-07T03:53:47;101712.91;;;8.38;100.00
55610;BME280;41486;52.502;13.486;2023-05-07T03:56:16;101720.19;;;8.33;100.00
55610;BME280;41486;52.502;13.486;2023-05-07T03:58:47;101722.16;;;8.45;100.00
55610;BME280;41486;52.502;13.486;2023-05-07T04:01:15;101721.88;;;8.34;100.00
55610;BME280;41486;52.502;13.486;2023-05-07T04:03:43;101724.72;;;8.29;100.00
55610;BME280;41486;52.502;13.486;2023-05-07T04:06:12;101712.06;;;8.37;100.00
55610;BME280;41486;52.502;13.486;2023-05-07T04:08:43;101721.19;;;8.30;100.00
55610;BME280;41486;52.502;13.486;2023-05-07T04:11:12;101712.97;;;8.19;100.00
55610;BME280;41486;52.502;13.486;2023-05-07T04:13:42;101721.50;;;8.24;100.00
55610;BME280;41486;52.502;13.486;2023-05-07T04:16:10;101715.75;;;8.33;100.00
55610;BME280;41486;52.502;13.486;2023-05-07T04:18:38;101720.56;;;8.25;100.00
55610;BME280;41486;52.502;13.486;2023-05-07T04:21:13;101721.97;;;8.32;100.00
55610;BME280;41486;52.502;13.486;2023-05-07T04:23:41;101727.91;;;8.36;100.00
55610;BME280;41486;52.502;13.486;2023-05-07T04:26:11;101725.22;;;8.55;100.00
55610;BME280;41486;52.502;13.486;2023-05-07T04:28:43;101731.19;;;8.59;100.00
55610;BME280;41486;52.502;13.486;2023-05-07T04:31:11;101726.50;;;8.46;100.00
55610;BME280;41486;52.502;13.486;2023-05-07T04:33:40;101729.44;;;8.40;100.00
55610;BME280;41486;52.502;13.486;2023-05-07T04:36:11;101732.41;;;8.51;100.00
55610;BME280;41486;52.502;13.486;2023-05-07T04:38:47;101730.63;;;8.52;100.00
55610;BME280;41486;52.502;13.486;2023-05-07T04:41:17;101730.91;;;8.46;100.00
55610;BME280;41486;52.502;13.486;2023-05-07T04:43:46;101727.59;;;8.42;100.00
55610;BME280;41486;52.502;13.486;2023-05-07T04:46:16;101730.03;;;8.45;100.00
55610;BME280;41486;52.502;13.486;2023-05-07T04:48:44;101733.97;;;8.36;100.00
55610;BME280;41486;52.502;13.486;2023-05-07T04:51:12;101741.13;;;8.52;100.00
55610;BME280;41486;52.502;13.486;2023-05-07T04:53:40;101746.72;;;8.44;100.00
55610;BME280;41486;52.502;13.486;2023-05-07T04:56:09;101750.00;;;8.67;100.00
55610;BME280;41486;52.502;13.486;2023-05-07T04:58:41;101741.50;;;8.79;100.00
55610;BME280;41486;52.502;13.486;2023-05-07T05:01:10;101753.53;;;8.83;100.00
55610;BME280;41486;52.502;13.486;2023-05-07T05:03:39;101745.34;;;8.90;100.00
55610;BME280;41486;52.502;13.486;2023-05-07T05:06:08;101750.75;;;8.87;100.00
55610;BME280;41486;52.502;13.486;2023-05-07T05:08:36;101755.06;;;9.05;100.00
55610;BME280;41486;52.502;13.486;2023-05-07T05:11:04;101758.72;;;9.19;100.00
55610;BME280;41486;52.502;13.486;2023-05-07T05:13:34;101761.09;;;9.07;100.00
55610;BME280;41486;52.502;13.486;2023-05-07T05:16:10;101756.19;;;9.17;100.00
55610;BME280;41486;52.502;13.486;2023-05-07T05:18:39;101757.38;;;8.94;100.00
55610;BME280;41486;52.502;13.486;2023-05-07T05:21:09;101765.09;;;9.14;100.00
55610;BME280;41486;52.502;13.486;2023-05-07T05:23:38;101766.38;;;9.06;100.00
55610;BME280;41486;52.502;13.486;2023-05-07T05:26:06;101772.53;;;9.22;100.00
55610;BME280;41486;52.502;13.486;2023-05-07T05:28:34;101768.50;;;8.99;100.00
55610;BME280;41486;52.502;13.486;2023-05-07T05:31:03;101753.59;;;8.82;100.00
55610;BME280;41486;52.502;13.486;2023-05-07T05:33:35;101763.34;;;8.80;100.00
55610;BME280;41486;52.502;13.486;2023-05-07T05:36:05;101758.56;;;8.71;100.00
55610;BME280;41486;52.502;13.486;2023-05-07T05:38:34;101770.34;;;8.62;100.00
55610;BME280;41486;52.502;13.486;2023-05-07T05:41:02;101770.50;;;8.94;100.00
55610;BME280;41486;52.502;13.486;2023-05-07T05:43:30;101769.34;;;8.99;100.00
55610;BME280;41486;52.502;13.486;2023-05-07T05:45:59;101763.91;;;9.20;100.00
55610;BME280;41486;52.502;13.486;2023-05-07T05:48:28;101758.16;;;8.96;100.00
55610;BME280;41486;52.502;13.486;2023-05-07T05:50:59;101763.72;;;9.07;100.00
55610;BME280;41486;52.502;13.486;2023-05-07T05:53:28;101774.66;;;9.15;100.00
55610;BME280;41486;52.502;13.486;2023-05-07T05:55:56;101779.81;;;9.17;100.00
55610;BME280;41486;52.502;13.486;2023-05-07T05:58:24;101784.84;;;9.38;100.00
55610;BME280;41486;52.502;13.486;2023-05-07T06:00:57;101778.38;;;9.61;100.00
55610;BME280;41486;52.502;13.486;2023-05-07T06:03:27;101774.53;;;9.35;100.00
55610;BME280;41486;52.502;13.486;2023-05-07T06:05:59;101773.44;;;9.39;100.00
55610;BME280;41486;52.502;13.486;2023-05-07T06:08:29;101773.81;;;9.49;100.00
55610;BME280;41486;52.502;13.486;2023-05-07T06:10:58;101785.16;;;9.49;100.00
55610;BME280;41486;52.502;13.486;2023-05-07T06:13:27;101786.47;;;9.74;100.00
55610;BME280;41486;52.502;13.486;2023-05-07T06:15:55;101791.53;;;9.61;100.00
55610;BME280;41486;52.502;13.486;2023-05-07T06:18:23;101790.41;;;9.49;100.00
55610;BME280;41486;52.502;13.486;2023-05-07T06:20:51;101795.75;;;9.63;100.00
55610;BME280;41486;52.502;13.486;2023-05-07T06:23:26;101796.19;;;9.56;100.00
55610;BME280;41486;52.502;13.486;2023-05-07T06:25:54;101800.44;;;9.74;100.00
55610;BME280;41486;52.502;13.486;2023-05-07T06:28:26;101794.69;;;9.84;100.00
55610;BME280;41486;52.502;13.486;2023-05-07T06:31:11;101804.69;;;9.77;100.00
55610;BME280;41486;52.502;13.486;2023-05-07T06:33:40;101807.25;;;9.78;100.00
55610;BME280;41486;52.502;13.486;2023-05-07T06:36:08;101803.34;;;9.86;100.00
55610;BME280;41486;52.502;13.486;2023-05-07T06:38:39;101806.75;;;9.88;100.00
55610;BME280;41486;52.502;13.486;2023-05-07T06:41:07;101808.88;;;9.97;100.00
55610;BME280;41486;52.502;13.486;2023-05-07T06:43:37;101815.53;;;10.03;100.00
55610;BME280;41486;52.502;13.486;2023-05-07T06:46:30;101807.75;;;10.01;100.00
55610;BME280;41486;52.502;13.486;2023-05-07T06:48:58;101815.47;;;10.20;100.00
55610;BME280;41486;52.502;13.486;2023-05-07T06:51:27;101819.63;;;9.92;100.00
55610;BME280;41486;52.502;13.486;2023-05-07T06:53:58;101828.50;;;9.74;100.00
55610;BME280;41486;52.502;13.486;2023-05-07T06:56:26;101828.44;;;10.07;100.00
55610;BME280;41486;52.502;13.486;2023-05-07T06:58:54;101823.13;;;10.09;100.00
55610;BME280;41486;52.502;13.486;2023-05-07T07:01:23;101828.09;;;10.30;100.00
55610;BME280;41486;52.502;13.486;2023-05-07T07:03:51;101824.63;;;10.29;100.00
55610;BME280;41486;52.502;13.486;2023-05-07T07:06:21;101828.28;;;10.43;100.00
55610;BME280;41486;52.502;13.486;2023-05-07T07:08:49;101826.34;;;10.46;100.00
55610;BME280;41486;52.502;13.486;2023-05-07T07:11:18;101837.44;;;10.35;100.00
55610;BME280;41486;52.502;13.486;2023-05-07T07:13:47;101829.22;;;10.41;100.00
55610;BME280;41486;52.502;13.486;2023-05-07T07:16:15;101825.72;;;10.57;100.00
55610;BME280;41486;52.502;13.486;2023-05-07T07:18:45;101820.88;;;10.33;100.00
55610;BME280;41486;52.502;13.486;2023-05-07T07:21:13;101826.34;;;10.46;100.00
55610;BME280;41486;52.502;13.486;2023-05-07T07:23:42;101829.59;;;10.66;100.00
55610;BME280;41486;52.502;13.486;2023-05-07T07:26:10;101832.84;;;10.85;100.00
55610;BME280;41486;52.502;13.486;2023-05-07T07:28:43;101835.50;;;10.85;100.00
55610;BME280;41486;52.502;13.486;2023-05-07T07:31:15;101840.91;;;11.13;100.00
55610;BME280;41486;52.502;13.486;2023-05-07T07:33:44;101832.63;;;10.74;100.00
55610;BME280;41486;52.502;13.486;2023-05-07T07:36:12;101838.13;;;10.85;100.00
55610;BME280;41486;52.502;13.486;2023-05-07T07:38:40;101834.97;;;11.09;100.00
55610;BME280;41486;52.502;13.486;2023-05-07T07:41:08;101829.59;;;11.11;99.66
55610;BME280;41486;52.502;13.486;2023-05-07T07:43:36;101827.44;;;11.03;99.55
55610;BME280;41486;52.502;13.486;2023-05-07T07:46:06;101819.19;;;11.38;99.33
55610;BME280;41486;52.502;13.486;2023-05-07T07:48:34;101816.84;;;11.48;99.26
55610;BME280;41486;52.502;13.486;2023-05-07T07:51:02;101822.13;;;11.48;96.78
55610;BME280;41486;52.502;13.486;2023-05-07T07:53:30;101815.91;;;11.34;96.42
55610;BME280;41486;52.502;13.486;2023-05-07T07:55:59;101816.00;;;11.18;96.44
55610;BME280;41486;52.502;13.486;2023-05-07T07:58:32;101822.03;;;11.35;96.60
55610;BME280;41486;52.502;13.486;2023-05-07T08:01:03;101817.59;;;11.21;97.10
55610;BME280;41486;52.502;13.486;2023-05-07T08:03:32;101822.19;;;11.32;96.45
55610;BME280;41486;52.502;13.486;2023-05-07T08:06:01;101826.84;;;11.57;95.41
55610;BME280;41486;52.502;13.486;2023-05-07T08:08:31;101824.19;;;11.72;92.53
55610;BME280;41486;52.502;13.486;2023-05-07T08:10:59;101823.91;;;11.76;90.64
55610;BME280;41486;52.502;13.486;2023-05-07T08:13:30;101823.78;;;11.78;89.76
55610;BME280;41486;52.502;13.486;2023-05-07T08:15:59;101819.25;;;11.94;89.52
55610;BME280;41486;52.502;13.486;2023-05-07T08:18:27;101821.88;;;12.09;89.09
55610;BME280;41486;52.502;13.486;2023-05-07T08:21:00;101827.88;;;12.25;88.23
55610;BME280;41486;52.502;13.486;2023-05-07T08:23:30;101819.47;;;12.33;88.57
55610;BME280;41486;52.502;13.486;2023-05-07T08:25:58;101822.19;;;12.31;91.28
55610;BME280;41486;52.502;13.486;2023-05-07T08:28:30;101832.91;;;12.43;88.76
55610;BME280;41486;52.502;13.486;2023-05-07T08:30:58;101822.28;;;12.57;87.89
55610;BME280;41486;52.502;13.486;2023-05-07T08:33:31;101825.84;;;12.56;86.50
55610;BME280;41486;52.502;13.486;2023-05-07T08:36:01;101827.97;;;12.51;85.98
55610;BME280;41486;52.502;13.486;2023-05-07T08:38:29;101839.63;;;12.61;87.46
55610;BME280;41486;52.502;13.486;2023-05-07T08:40:57;101834.13;;;12.65;84.75
55610;BME280;41486;52.502;13.486;2023-05-07T08:43:27;101846.84;;;12.45;84.98
55610;BME280;41486;52.502;13.486;2023-05-07T08:45:55;101830.53;;;12.66;84.86
55610;BME280;41486;52.502;13.486;2023-05-07T08:48:29;101835.84;;;12.78;83.27
55610;BME280;41486;52.502;13.486;2023-05-07T08:51:06;101832.28;;;12.80;82.49
55610;BME280;41486;52.502;13.486;2023-05-07T08:53:35;101831.81;;;12.73;83.95
55610;BME280;41486;52.502;13.486;2023-05-07T08:56:04;101831.63;;;12.76;83.43
55610;BME280;41486;52.502;13.486;2023-05-07T08:58:35;101840.88;;;12.56;83.75
55610;BME280;41486;52.502;13.486;2023-05-07T09:01:07;101837.19;;;12.58;84.69
55610;BME280;41486;52.502;13.486;2023-05-07T09:03:37;101841.63;;;12.71;83.87
55610;BME280;41486;52.502;13.486;2023-05-07T09:06:07;101839.75;;;12.73;82.39
55610;BME280;41486;52.502;13.486;2023-05-07T09:08:35;101846.88;;;12.85;84.29
55610;BME280;41486;52.502;13.486;2023-05-07T09:11:05;101837.03;;;12.87;83.13
55610;BME280;41486;52.502;13.486;2023-05-07T09:13:33;101841.59;;;12.85;83.51
55610;BME280;41486;52.502;13.486;2023-05-07T09:16:12;101849.84;;;13.06;80.58
55610;BME280;41486;52.502;13.486;2023-05-07T09:18:43;101855.38;;;13.42;80.10
55610;BME280;41486;52.502;13.486;2023-05-07T09:21:16;101846.94;;;13.50;78.83
55610;BME280;41486;52.502;13.486;2023-05-07T09:23:48;101850.47;;;13.23;80.60
55610;BME280;41486;52.502;13.486;2023-05-07T09:26:16;101851.03;;;13.15;80.99
55610;BME280;41486;52.502;13.486;2023-05-07T09:28:44;101848.59;;;13.25;79.25
55610;BME280;41486;52.502;13.486;2023-05-07T09:31:13;101852.63;;;13.31;77.15
55610;BME280;41486;52.502;13.486;2023-05-07T09:33:42;101859.16;;;13.12;79.69
55610;BME280;41486;52.502;13.486;2023-05-07T09:36:12;101847.44;;;13.29;79.18
55610;BME280;41486;52.502;13.486;2023-05-07T09:38:42;101836.41;;;13.09;79.42
55610;BME280;41486;52.502;13.486;2023-05-07T09:41:12;101849.03;;;13.32;78.31
55610;BME280;41486;52.502;13.486;2023-05-07T09:43:57;101854.53;;;13.67;76.19
55610;BME280;41486;52.502;13.486;2023-05-07T09:46:34;101850.41;;;13.37;76.08
55610;BME280;41486;52.502;13.486;2023-05-07T09:49:12;101846.25;;;13.33;77.67
55610;BME280;41486;52.502;13.486;2023-05-07T09:51:48;101850.00;;;13.56;75.73
55610;BME280;41486;52.502;13.486;2023-05-07T09:54:19;101855.50;;;13.53;75.46
55610;BME280;41486;52.502;13.486;2023-05-07T09:56:51;101851.56;;;14.09;72.19
55610;BME280;41486;52.502;13.486;2023-05-07T09:59:23;101855.63;;;14.26;71.57
55610;BME280;41486;52.502;13.486;2023-05-07T10:01:52;101856.53;;;14.62;70.05
55610;BME280;41486;52.502;13.486;2023-05-07T10:04:21;101859.66;;;14.56;69.86
55610;BME280;41486;52.502;13.486;2023-05-07T10:06:52;101854.75;;;14.87;68.75
55610;BME280;41486;52.502;13.486;2023-05-07T10:09:21;101861.34;;;14.81;66.96
55610;BME280;41486;52.502;13.486;2023-05-07T10:11:49;101851.44;;;14.48;68.08
55610;BME280;41486;52.502;13.486;2023-05-07T10:14:20;101855.53;;;14.52;67.58
55610;BME280;41486;52.502;13.486;2023-05-07T10:16:53;101856.56;;;14.98;64.58
55610;BME280;41486;52.502;13.486;2023-05-07T10:19:22;101857.88;;;15.62;61.81
55610;BME280;41486;52.502;13.486;2023-05-07T10:21:57;101851.50;;;14.95;63.43
55610;BME280;41486;52.502;13.486;2023-05-07T10:24:32;101859.44;;;14.83;63.57
55610;BME280;41486;52.502;13.486;2023-05-07T10:27:05;101854.16;;;14.95;65.61
55610;BME280;41486;52.502;13.486;2023-05-07T10:29:41;101857.13;;;15.26;63.62
55610;BME280;41486;52.502;13.486;2023-05-07T10:32:23;101861.47;;;15.38;64.20
55610;BME280;41486;52.502;13.486;2023-05-07T10:35:00;101864.97;;;15.39;62.05
55610;BME280;41486;52.502;13.486;2023-05-07T10:37:30;101865.09;;;15.26;62.71
55610;BME280;41486;52.502;13.486;2023-05-07T10:40:00;101860.13;;;15.33;62.40
55610;BME280;41486;52.502;13.486;2023-05-07T10:42:30;101859.22;;;14.98;63.14
55610;BME280;41486;52.502;13.486;2023-05-07T10:45:11;101847.88;;;14.60;62.88
55610;BME280;41486;52.502;13.486;2023-05-07T10:50:45;101870.59;;;14.76;63.52
55610;BME280;41486;52.502;13.486;2023-05-07T10:53:24;101855.75;;;15.09;59.96
55610;BME280;41486;52.502;13.486;2023-05-07T10:56:26;101855.00;;;14.95;60.01
55610;BME280;41486;52.502;13.486;2023-05-07T10:59:39;101854.16;;;14.95;60.34
55610;BME280;41486;52.502;13.486;2023-05-07T11:03:06;101858.34;;;15.33;60.98
55610;BME280;41486;52.502;13.486;2023-05-07T11:06:11;101855.09;;;15.52;58.96
55610;BME280;41486;52.502;13.486;2023-05-07T11:08:54;101864.44;;;15.22;59.60
55610;BME280;41486;52.502;13.486;2023-05-07T11:31:29;101842.06;;;17.65;50.75
55610;BME280;41486;52.502;13.486;2023-05-07T11:34:00;101843.38;;;18.51;49.91
55610;BME280;41486;52.502;13.486;2023-05-07T11:36:32;101838.03;;;18.32;49.02
55610;BME280;41486;52.502;13.486;2023-05-07T11:39:02;101839.13;;;18.88;47.60
55610;BME280;41486;52.502;13.486;2023-05-07T11:41:34;101841.13;;;17.14;51.40
55610;BME280;41486;52.502;13.486;2023-05-07T11:44:03;101840.00;;;17.38;51.50
55610;BME280;41486;52.502;13.486;2023-05-07T11:46:33;101846.72;;;17.11;51.39
55610;BME280;41486;52.502;13.486;2023-05-07T11:49:01;101830.41;;;17.57;50.45
55610;BME280;41486;52.502;13.486;2023-05-07T11:51:30;101830.63;;;17.44;50.96
55610;BME280;41486;52.502;13.486;2023-05-07T11:53:58;101843.75;;;19.53;45.90
55610;BME280;41486;52.502;13.486;2023-05-07T11:56:26;101841.81;;;18.29;47.79
55610;BME280;41486;52.502;13.486;2023-05-07T11:58:54;101845.44;;;18.28;48.04
55610;BME280;41486;52.502;13.486;2023-05-07T12:01:22;101847.28;;;17.36;51.43
55610;BME280;41486;52.502;13.486;2023-05-07T12:03:52;101844.88;;;17.12;51.37
55610;BME280;41486;52.502;13.486;2023-05-07T12:06:20;101851.50;;;20.48;43.10
55610;BME280;41486;52.502;13.486;2023-05-07T12:08:48;101836.41;;;19.65;43.95
55610;BME280;41486;52.502;13.486;2023-05-07T12:11:23;101834.53;;;18.70;46.84
55610;BME280;41486;52.502;13.486;2023-05-07T12:13:51;101835.47;;;20.30;43.07
55610;BME280;41486;52.502;13.486;2023-05-07T12:16:25;101833.25;;;18.06;48.99
55610;BME280;41486;52.502;13.486;2023-05-07T12:18:55;101829.81;;;16.80;51.16
55610;BME280;41486;52.502;13.486;2023-05-07T12:21:25;101838.88;;;17.72;48.98
55610;BME280;41486;52.502;13.486;2023-05-07T12:23:53;101835.66;;;18.68;47.71
55610;BME280;41486;52.502;13.486;2023-05-07T12:26:21;101849.63;;;19.19;45.27
55610;BME280;41486;52.502;13.486;2023-05-07T12:28:51;101851.03;;;19.13;45.88
55610;BME280;41486;52.502;13.486;2023-05-07T12:31:19;101847.63;;;19.31;46.15
55610;BME280;41486;52.502;13.486;2023-05-07T12:33:47;101836.44;;;19.07;45.46
55610;BME280;41486;52.502;13.486;2023-05-07T12:36:16;101839.94;;;20.11;44.31
55610;BME280;41486;52.502;13.486;2023-05-07T12:38:44;101832.78;;;20.48;43.04
55610;BME280;41486;52.502;13.486;2023-05-07T12:41:12;101839.41;;;20.62;42.57
55610;BME280;41486;52.502;13.486;2023-05-07T12:43:43;101843.59;;;19.92;43.39
55610;BME280;41486;52.502;13.486;2023-05-07T12:46:12;101840.00;;;19.36;44.62
55610;BME280;41486;52.502;13.486;2023-05-07T12:48:44;101845.59;;;18.85;45.67
55610;BME280;41486;52.502;13.486;2023-05-07T12:51:13;101838.88;;;18.62;46.27
55610;BME280;41486;52.502;13.486;2023-05-07T12:53:43;101840.13;;;19.44;44.92
55610;BME280;41486;52.502;13.486;2023-05-07T12:56:11;101846.28;;;20.10;42.18
55610;BME280;41486;52.502;13.486;2023-05-07T12:58:39;101846.72;;;20.06;41.68
55610;BME280;41486;52.502;13.486;2023-05-07T13:01:08;101841.41;;;18.83;44.95
55610;BME280;41486;52.502;13.486;2023-05-07T13:03:38;101836.22;;;18.42;44.92
55610;BME280;41486;52.502;13.486;2023-05-07T13:06:07;101845.56;;;20.99;40.16
55610;BME280;41486;52.502;13.486;2023-05-07T13:08:38;101838.28;;;21.70;38.07
55610;BME280;41486;52.502;13.486;2023-05-07T13:11:09;101841.28;;;21.06;38.17
55610;BME280;41486;52.502;13.486;2023-05-07T13:13:39;101845.94;;;19.30;42.51
55610;BME280;41486;52.502;13.486;2023-05-07T13:16:08;101845.00;;;19.59;42.86
55610;BME280;41486;52.502;13.486;2023-05-07T13:18:38;101847.00;;;18.60;44.58